BDS weather

Brindisi – Salento Airport
Brindisi, Apulia, Italy

Public forecast

Using degrees Celsius for public forecast. Weather courtesy of forecast.io.

Current aviation weather report (METAR) for Brindisi – Salento Airport

Retrieved 2020/01/23 19:20 UTC (10 minutes ago):

LIBR 231920Z 33008KT CAVOK 12/07 Q1028

Aviation forecast (TAF) for Brindisi – Salento Airport

Retrieved 2020/01/23 18:00 UTC (2 hours ago):

TAF LIBR 231700Z 2318/2418 32010KT 9999 FEW030 BECMG 2319/2321 VRB05KT BECMG 2408/2410 17012KT